Terminal Aerodrome Forecast
Issued by NWS Blacksburg, VA

Current Version | Previous Version | Graphics & Text | Print | Product List | Glossary On
Versions: 1 2 3 4 5 6 7 8 9 10 11 12 13 14 15 16 17
000
FTUS41 KRNK 161120
TAFBLF
TAF
KBLF 161120Z 1612/1712 00000KT 1SM BR SCT003
      TEMPO 1612/1613 1/4SM FG BKN003
     FM161400 00000KT 5SM BR SCT250
     FM161600 VRB03KT P6SM BKN060=

USA.gov is the U.S. government's official web portal to all federal, state and local government web resources and services.